createdAt,value
2023-01-30T00:00:44.783Z,98858.44
2023-01-30T00:03:34.376Z,98860.31
2023-01-30T00:06:23.015Z,98846.56
2023-01-30T00:09:15.822Z,98837.72
2023-01-30T00:12:03.310Z,98825.47
2023-01-30T00:14:50.898Z,98827.19
2023-01-30T00:17:38.487Z,98823.78
2023-01-30T00:20:27.429Z,98816.63
2023-01-30T00:23:15.484Z,98817.75
2023-01-30T00:26:03.231Z,98831.91
2023-01-30T00:28:51.044Z,98836.53
2023-01-30T00:31:38.509Z,98837.34
2023-01-30T00:34:26.103Z,98845.25
2023-01-30T00:37:14.883Z,98846.97
2023-01-30T00:40:02.578Z,98852.09
2023-01-30T00:43:07.758Z,98862.38
2023-01-30T00:46:13.908Z,98871.69
2023-01-30T00:49:01.497Z,98872.22
2023-01-30T00:51:49.371Z,98883.56
2023-01-30T00:54:38.355Z,98879.00
2023-01-30T00:57:25.876Z,98884.78
2023-01-30T01:00:16.949Z,98873.28
2023-01-30T01:03:04.883Z,98861.84
2023-01-30T01:05:52.568Z,98867.31
2023-01-30T01:08:40.055Z,98863.44
2023-01-30T01:11:28.802Z,98864.81
2023-01-30T01:14:16.383Z,98858.09
2023-01-30T01:17:03.863Z,98842.31
2023-01-30T01:19:51.230Z,98834.75
2023-01-30T01:22:38.690Z,98833.19
2023-01-30T01:25:27.188Z,98833.03
2023-01-30T01:28:18.339Z,98823.81
2023-01-30T01:31:11.763Z,98822.06
2023-01-30T01:33:59.289Z,98815.84
2023-01-30T01:36:53.765Z,98812.19
2023-01-30T01:39:59.818Z,98798.03
2023-01-30T01:42:47.553Z,98782.56
2023-01-30T01:45:37.106Z,98771.59
2023-01-30T01:48:31.577Z,98773.34
2023-01-30T01:51:27.826Z,98774.59
2023-01-30T01:54:22.408Z,98779.19
2023-01-30T01:57:19.238Z,98765.66
2023-01-30T02:00:12.784Z,98749.13
2023-01-30T02:03:07.265Z,98749.50
2023-01-30T02:06:01.133Z,98752.25
2023-01-30T02:08:52.309Z,98734.41
2023-01-30T02:11:49.058Z,98718.00
2023-01-30T02:14:38.679Z,98713.78
2023-01-30T02:17:26.729Z,98710.25
2023-01-30T02:20:28.965Z,98693.72
2023-01-30T02:24:08.710Z,98690.41
2023-01-30T02:27:31.887Z,98670.47
2023-01-30T02:31:12.866Z,98659.94
2023-01-30T02:34:20.640Z,98675.13
2023-01-30T02:37:35.841Z,98686.91
2023-01-30T02:40:49.204Z,98688.09
2023-01-30T02:43:48.253Z,98682.66
2023-01-30T02:46:49.027Z,98683.50
2023-01-30T02:49:43.422Z,98670.56
2023-01-30T02:52:32.246Z,98676.81
2023-01-30T02:55:23.315Z,98671.81
2023-01-30T02:58:12.465Z,98657.13
2023-01-30T03:01:50.379Z,98646.50
2023-01-30T03:05:03.096Z,98639.66
2023-01-30T03:08:01.847Z,98635.53
2023-01-30T03:10:59.561Z,98639.75
2023-01-30T03:13:57.142Z,98624.97
2023-01-30T03:16:58.750Z,98605.19
2023-01-30T03:19:52.387Z,98602.81
2023-01-30T03:22:40.155Z,98599.91
2023-01-30T03:25:28.620Z,98587.50
2023-01-30T03:28:21.446Z,98584.47
2023-01-30T03:31:09.825Z,98589.31
2023-01-30T03:33:58.936Z,98596.53
2023-01-30T03:36:48.307Z,98596.69
2023-01-30T03:39:38.420Z,98593.16
2023-01-30T03:42:26.673Z,98593.53
2023-01-30T03:45:17.518Z,98592.91
2023-01-30T03:48:05.566Z,98580.34
2023-01-30T03:50:54.456Z,98575.50
2023-01-30T03:53:43.706Z,98576.56
2023-01-30T03:56:32.510Z,98575.63
2023-01-30T03:59:25.341Z,98580.53
2023-01-30T04:02:23.189Z,98581.94
2023-01-30T04:05:12.286Z,98583.31
2023-01-30T04:08:02.920Z,98577.78
2023-01-30T04:10:50.898Z,98577.69
2023-01-30T04:13:42.627Z,98575.78
2023-01-30T04:16:30.411Z,98581.47
2023-01-30T04:19:17.880Z,98591.09
2023-01-30T04:22:05.705Z,98587.44
2023-01-30T04:24:59.703Z,98574.22
2023-01-30T04:27:47.430Z,98580.31
2023-01-30T04:30:34.799Z,98574.06
2023-01-30T04:33:22.540Z,98575.59
2023-01-30T04:36:12.045Z,98578.13
2023-01-30T04:39:01.791Z,98563.94
2023-01-30T04:41:51.129Z,98565.69
2023-01-30T04:44:38.979Z,98564.44
2023-01-30T04:47:26.476Z,98565.28
2023-01-30T04:50:14.036Z,98565.44
2023-01-30T04:53:07.463Z,98560.00
2023-01-30T04:55:55.464Z,98540.28
2023-01-30T04:58:44.373Z,98533.22
2023-01-30T05:01:42.764Z,98529.34
2023-01-30T05:04:30.256Z,98525.06
2023-01-30T05:07:19.466Z,98534.66
2023-01-30T05:10:09.127Z,98540.22
2023-01-30T05:12:56.809Z,98539.97
2023-01-30T05:15:46.704Z,98531.34
2023-01-30T05:18:35.046Z,98524.22
2023-01-30T05:21:27.847Z,98508.38
2023-01-30T05:24:15.762Z,98505.25
2023-01-30T05:27:03.281Z,98517.38
2023-01-30T05:29:51.164Z,98515.19
2023-01-30T05:32:39.915Z,98512.50
2023-01-30T05:35:27.667Z,98508.38
2023-01-30T05:38:15.509Z,98515.28
2023-01-30T05:41:05.864Z,98515.34
2023-01-30T05:43:53.245Z,98513.44
2023-01-30T05:46:41.203Z,98511.31
2023-01-30T05:49:30.280Z,98497.50
2023-01-30T05:52:18.065Z,98501.81
2023-01-30T05:55:06.317Z,98495.81
2023-01-30T05:57:53.803Z,98491.28
2023-01-30T06:00:41.313Z,98483.69
2023-01-30T06:03:28.937Z,98488.06
2023-01-30T06:06:18.092Z,98494.81
2023-01-30T06:09:05.883Z,98506.25
2023-01-30T06:11:55.344Z,98502.66
2023-01-30T06:14:42.825Z,98512.34
2023-01-30T06:17:30.168Z,98503.47
2023-01-30T06:20:18.149Z,98506.78
2023-01-30T06:23:16.610Z,98497.19
2023-01-30T06:26:06.228Z,98496.00
2023-01-30T06:28:55.652Z,98490.94
2023-01-30T06:31:43.336Z,98491.75
2023-01-30T06:34:31.175Z,98498.78
2023-01-30T06:37:18.558Z,98497.50
2023-01-30T06:40:09.116Z,98502.88
2023-01-30T06:42:57.045Z,98516.38
2023-01-30T06:45:45.108Z,98510.47
2023-01-30T06:48:33.054Z,98504.22
2023-01-30T06:51:22.316Z,98500.78
2023-01-30T06:54:09.932Z,98491.75
2023-01-30T06:57:01.715Z,98497.84
2023-01-30T06:59:49.335Z,98489.91
2023-01-30T07:02:36.897Z,98492.41
2023-01-30T07:05:24.761Z,98489.72
2023-01-30T07:08:13.481Z,98489.91
2023-01-30T07:11:01.352Z,98474.72
2023-01-30T07:13:50.009Z,98476.38
2023-01-30T07:16:37.622Z,98467.56
2023-01-30T07:19:25.055Z,98472.00
2023-01-30T07:22:13.072Z,98459.88
2023-01-30T07:25:01.057Z,98461.56
2023-01-30T07:27:52.885Z,98462.25
2023-01-30T07:30:42.013Z,98468.38
2023-01-30T07:33:32.958Z,98439.81
2023-01-30T07:36:21.746Z,98428.34
2023-01-30T07:39:09.646Z,98431.72
2023-01-30T07:42:02.378Z,98424.63
2023-01-30T07:44:50.119Z,98428.38
2023-01-30T07:47:38.879Z,98425.94
2023-01-30T07:50:26.961Z,98417.16
2023-01-30T07:53:18.490Z,98401.81
2023-01-30T07:56:09.226Z,98398.91
2023-01-30T07:58:57.807Z,98400.59
2023-01-30T08:01:45.673Z,98399.66
2023-01-30T08:04:34.747Z,98409.19
2023-01-30T08:07:23.444Z,98408.94
2023-01-30T08:10:12.537Z,98381.00
2023-01-30T08:13:00.413Z,98396.13
2023-01-30T08:15:47.968Z,98398.75
2023-01-30T08:18:38.939Z,98401.34
2023-01-30T08:21:28.172Z,98386.34
2023-01-30T08:24:16.192Z,98385.31
2023-01-30T08:27:03.769Z,98386.16
2023-01-30T08:29:52.006Z,98382.78
2023-01-30T08:32:39.619Z,98392.38
2023-01-30T08:35:33.142Z,98385.88
2023-01-30T08:38:23.919Z,98388.50
2023-01-30T08:41:11.933Z,98374.66
2023-01-30T08:44:05.775Z,98386.78
2023-01-30T08:46:58.608Z,98390.94
2023-01-30T08:49:46.440Z,98374.47
2023-01-30T08:52:34.590Z,98394.44
2023-01-30T08:55:23.783Z,98377.84
2023-01-30T08:58:11.528Z,98391.66
2023-01-30T09:01:01.661Z,98395.22
2023-01-30T09:03:52.449Z,98396.06
2023-01-30T09:06:43.191Z,98397.84
2023-01-30T09:09:31.276Z,98393.53
2023-01-30T09:12:22.037Z,98392.59
2023-01-30T09:15:11.837Z,98393.53
2023-01-30T09:17:59.752Z,98374.47
2023-01-30T09:20:47.596Z,98379.53
2023-01-30T09:23:35.765Z,98362.88
2023-01-30T09:26:23.526Z,98377.66
2023-01-30T09:29:13.229Z,98378.38
2023-01-30T09:32:03.448Z,98382.69
2023-01-30T09:34:50.765Z,98359.03
2023-01-30T09:37:38.608Z,98362.41
2023-01-30T09:40:30.238Z,98357.84
2023-01-30T09:43:41.386Z,98369.97
2023-01-30T09:46:43.014Z,98380.06
2023-01-30T09:49:46.822Z,98371.28
2023-01-30T09:52:52.661Z,98361.56
2023-01-30T09:55:42.728Z,98354.81
2023-01-30T09:58:46.153Z,98346.69
2023-01-30T10:01:49.553Z,98347.53
2023-01-30T10:05:00.834Z,98349.03
2023-01-30T10:08:07.318Z,98350.69
2023-01-30T10:11:10.352Z,98338.97
2023-01-30T10:14:23.114Z,98335.06
2023-01-30T10:17:35.269Z,98340.94
2023-01-30T10:20:42.439Z,98342.41
2023-01-30T10:24:09.493Z,98337.63
2023-01-30T10:26:58.375Z,98334.91
2023-01-30T10:29:54.082Z,98331.25
2023-01-30T10:32:49.673Z,98337.25
2023-01-30T10:35:40.337Z,98328.25
2023-01-30T10:38:38.449Z,98342.91
2023-01-30T10:41:33.732Z,98330.56
2023-01-30T10:44:25.253Z,98333.84
2023-01-30T10:47:47.146Z,98331.94
2023-01-30T10:50:52.078Z,98333.63
2023-01-30T10:53:49.192Z,98333.50
2023-01-30T10:56:48.628Z,98331.00
2023-01-30T10:59:53.948Z,98333.50
2023-01-30T11:03:04.292Z,98330.59
2023-01-30T11:05:59.592Z,98324.44
2023-01-30T11:08:47.583Z,98322.44
2023-01-30T11:11:48.575Z,98314.56
2023-01-30T11:14:59.761Z,98313.75
2023-01-30T11:17:47.672Z,98320.56
2023-01-30T11:20:42.475Z,98313.66
2023-01-30T11:23:42.764Z,98311.75
2023-01-30T11:26:45.503Z,98309.03
2023-01-30T11:29:36.019Z,98316.78
2023-01-30T11:32:28.508Z,98314.91
2023-01-30T11:35:27.325Z,98314.91
2023-01-30T11:38:24.679Z,98305.38
2023-01-30T11:41:23.111Z,98311.34
2023-01-30T11:44:12.502Z,98299.91
2023-01-30T11:47:02.715Z,98303.38
2023-01-30T11:50:08.110Z,98291.25
2023-01-30T11:53:07.374Z,98305.28
2023-01-30T11:56:06.222Z,98302.53
2023-01-30T11:59:01.857Z,98304.25
2023-01-30T12:01:50.306Z,98308.72
2023-01-30T12:04:46.100Z,98309.69
2023-01-30T12:07:37.891Z,98313.88
2023-01-30T12:10:32.793Z,98304.03
2023-01-30T12:13:28.881Z,98282.88
2023-01-30T12:16:26.264Z,98301.72
2023-01-30T12:19:29.183Z,98299.00
2023-01-30T12:22:37.139Z,98305.00
2023-01-30T12:25:30.324Z,98297.13
2023-01-30T12:28:31.657Z,98299.66
2023-01-30T12:31:28.214Z,98301.31
2023-01-30T12:34:15.719Z,98315.38
2023-01-30T12:37:34.137Z,98298.50
2023-01-30T12:40:43.779Z,98308.13
2023-01-30T12:44:20.153Z,98297.34
2023-01-30T12:47:32.191Z,98289.06
2023-01-30T12:50:37.334Z,98286.03
2023-01-30T12:53:48.783Z,98293.56
2023-01-30T12:57:19.943Z,98310.56
2023-01-30T13:00:33.508Z,98312.03
2023-01-30T13:03:31.946Z,98300.31
2023-01-30T13:06:40.652Z,98289.38
2023-01-30T13:09:55.780Z,98269.75
2023-01-30T13:12:56.299Z,98276.13
2023-01-30T13:15:59.220Z,98280.84
2023-01-30T13:18:55.215Z,98284.94
2023-01-30T13:21:50.818Z,98284.59
2023-01-30T13:24:55.959Z,98278.19
2023-01-30T13:27:54.953Z,98288.69
2023-01-30T13:30:46.603Z,98287.53
2023-01-30T13:33:37.865Z,98283.22
2023-01-30T13:36:38.106Z,98293.72
2023-01-30T13:39:34.568Z,98294.69
2023-01-30T13:42:34.015Z,98301.50
2023-01-30T13:45:27.354Z,98296.88
2023-01-30T13:48:36.135Z,98307.38
2023-01-30T13:51:48.438Z,98296.88
2023-01-30T13:54:57.834Z,98279.44
2023-01-30T13:57:52.057Z,98286.59
2023-01-30T14:00:40.494Z,98281.56
2023-01-30T14:03:31.911Z,98269.19
2023-01-30T14:06:37.058Z,98279.88
2023-01-30T14:09:35.347Z,98282.41
2023-01-30T14:12:28.562Z,98283.22
2023-01-30T14:15:31.742Z,98279.69
2023-01-30T14:18:26.320Z,98283.00
2023-01-30T14:21:18.033Z,98297.38
2023-01-30T14:24:08.055Z,98298.63
2023-01-30T14:27:27.545Z,98307.97
2023-01-30T14:30:38.564Z,98316.53
2023-01-30T14:33:48.520Z,98320.66
2023-01-30T14:36:37.950Z,98327.56
2023-01-30T14:39:40.325Z,98324.94
2023-01-30T14:42:32.272Z,98331.16
2023-01-30T14:45:48.097Z,98332.81
2023-01-30T14:48:45.280Z,98345.22
2023-01-30T14:51:38.162Z,98334.72
2023-01-30T14:54:42.771Z,98326.84
2023-01-30T14:57:34.667Z,98329.66
2023-01-30T15:00:30.263Z,98331.59
2023-01-30T15:03:22.204Z,98325.38
2023-01-30T15:06:11.258Z,98322.97
2023-01-30T15:08:58.921Z,98326.56
2023-01-30T15:12:02.556Z,98328.44
2023-01-30T15:15:06.121Z,98346.81
2023-01-30T15:18:30.543Z,98343.38
2023-01-30T15:21:42.594Z,98357.31
2023-01-30T15:25:08.942Z,98346.22
2023-01-30T15:28:13.239Z,98364.59
2023-01-30T15:31:15.236Z,98376.00
2023-01-30T15:34:03.625Z,98365.72
2023-01-30T15:36:51.529Z,98385.06
2023-01-30T15:39:39.198Z,98398.28
2023-01-30T15:42:26.834Z,98401.00
2023-01-30T15:45:21.040Z,98406.47
2023-01-30T15:48:50.439Z,98418.88
2023-01-30T15:51:38.687Z,98426.84
2023-01-30T15:54:26.965Z,98423.28
2023-01-30T15:57:21.913Z,98428.72
2023-01-30T16:00:26.085Z,98436.50
2023-01-30T16:03:21.220Z,98442.81
2023-01-30T16:06:25.674Z,98437.78
2023-01-30T16:09:23.624Z,98436.06
2023-01-30T16:12:25.945Z,98443.13
2023-01-30T16:15:29.110Z,98438.91
2023-01-30T16:18:26.735Z,98448.69
2023-01-30T16:21:23.488Z,98447.00
2023-01-30T16:24:21.210Z,98467.25
2023-01-30T16:27:19.966Z,98471.75
2023-01-30T16:30:10.472Z,98470.94
2023-01-30T16:32:59.034Z,98460.53
2023-01-30T16:35:47.085Z,98462.31
2023-01-30T16:38:44.482Z,98468.63
2023-01-30T16:41:36.537Z,98473.84
2023-01-30T16:44:26.192Z,98479.31
2023-01-30T16:47:25.948Z,98480.97
2023-01-30T16:50:20.761Z,98494.19
2023-01-30T16:53:16.769Z,98502.16
2023-01-30T16:56:11.140Z,98497.78
2023-01-30T16:59:02.401Z,98512.66
2023-01-30T17:01:54.019Z,98513.59
2023-01-30T17:04:43.219Z,98504.03
2023-01-30T17:07:38.702Z,98510.13
2023-01-30T17:10:52.579Z,98517.06
2023-01-30T17:13:43.536Z,98529.34
2023-01-30T17:16:35.454Z,98537.22
2023-01-30T17:19:23.027Z,98532.69
2023-01-30T17:22:20.607Z,98536.28
2023-01-30T17:25:23.130Z,98533.66
2023-01-30T17:28:21.135Z,98525.03
2023-01-30T17:31:12.889Z,98535.53
2023-01-30T17:34:00.576Z,98531.97
2023-01-30T17:36:48.572Z,98541.72
2023-01-30T17:39:35.999Z,98550.34
2023-01-30T17:42:27.633Z,98549.38
2023-01-30T17:45:15.740Z,98546.00
2023-01-30T17:48:05.025Z,98549.38
2023-01-30T17:50:52.635Z,98544.34
2023-01-30T17:53:40.474Z,98556.50
2023-01-30T17:56:37.878Z,98550.44
2023-01-30T17:59:28.349Z,98573.94
2023-01-30T18:02:15.958Z,98567.84
2023-01-30T18:05:05.362Z,98573.94
2023-01-30T18:07:53.276Z,98598.47
2023-01-30T18:10:40.721Z,98596.81
2023-01-30T18:13:28.369Z,98594.09
2023-01-30T18:16:22.600Z,98612.44
2023-01-30T18:19:14.465Z,98629.03
2023-01-30T18:22:04.073Z,98624.53
2023-01-30T18:24:52.474Z,98616.75
2023-01-30T18:27:40.421Z,98622.84
2023-01-30T18:30:27.825Z,98631.66
2023-01-30T18:33:15.392Z,98644.69
2023-01-30T18:36:07.571Z,98633.25
2023-01-30T18:38:57.308Z,98642.69
2023-01-30T18:41:44.763Z,98655.19
2023-01-30T18:44:32.213Z,98642.88
2023-01-30T18:47:20.000Z,98655.00
2023-01-30T18:50:14.153Z,98658.63
2023-01-30T18:53:04.802Z,98665.69
2023-01-30T18:55:53.868Z,98668.19
2023-01-30T18:58:42.295Z,98669.69
2023-01-30T19:01:34.417Z,98685.44
2023-01-30T19:04:22.119Z,98676.78
2023-01-30T19:07:11.530Z,98683.75
2023-01-30T19:10:01.680Z,98694.25
2023-01-30T19:13:08.563Z,98690.56
2023-01-30T19:16:00.307Z,98706.31
2023-01-30T19:18:48.349Z,98703.03
2023-01-30T19:21:37.015Z,98707.47
2023-01-30T19:24:25.131Z,98710.81
2023-01-30T19:27:13.777Z,98705.47
2023-01-30T19:30:02.696Z,98705.84
2023-01-30T19:32:51.975Z,98707.47
2023-01-30T19:35:42.236Z,98701.34
2023-01-30T19:38:29.969Z,98711.94
2023-01-30T19:41:20.983Z,98720.88
2023-01-30T19:44:09.823Z,98720.00
2023-01-30T19:46:58.912Z,98721.91
2023-01-30T19:49:46.672Z,98724.63
2023-01-30T19:52:34.098Z,98726.31
2023-01-30T19:55:21.472Z,98725.53
2023-01-30T19:58:09.291Z,98718.44
2023-01-30T20:01:05.573Z,98718.72
2023-01-30T20:03:55.248Z,98740.56
2023-01-30T20:06:49.750Z,98730.06
2023-01-30T20:09:40.369Z,98736.97
2023-01-30T20:12:28.099Z,98738.66
2023-01-30T20:15:21.414Z,98741.38
2023-01-30T20:18:12.679Z,98733.59
2023-01-30T20:21:09.541Z,98745.03
2023-01-30T20:23:59.919Z,98740.56
2023-01-30T20:26:48.962Z,98743.28
2023-01-30T20:29:37.603Z,98743.91
2023-01-30T20:32:26.279Z,98735.13
2023-01-30T20:35:15.729Z,98749.16
2023-01-30T20:38:09.682Z,98763.03
2023-01-30T20:41:04.173Z,98777.81
2023-01-30T20:43:57.429Z,98759.47
2023-01-30T20:46:47.407Z,98782.97
2023-01-30T20:49:36.112Z,98772.38
2023-01-30T20:52:24.493Z,98780.06
2023-01-30T20:55:14.742Z,98782.69
2023-01-30T20:58:03.513Z,98773.06
2023-01-30T21:00:52.564Z,98784.28
2023-01-30T21:03:41.581Z,98781.75
2023-01-30T21:06:37.051Z,98792.25
2023-01-30T21:09:32.107Z,98790.56
2023-01-30T21:12:23.752Z,98786.25
2023-01-30T21:15:12.383Z,98801.06
2023-01-30T21:18:01.646Z,98801.91
2023-01-30T21:20:51.208Z,98809.78
2023-01-30T21:23:43.149Z,98807.25
2023-01-30T21:26:33.708Z,98805.34
2023-01-30T21:29:26.768Z,98810.59
2023-01-30T21:32:14.676Z,98815.13
2023-01-30T21:35:03.574Z,98809.13
2023-01-30T21:38:09.263Z,98808.25
2023-01-30T21:41:11.523Z,98811.56
2023-01-30T21:44:02.228Z,98812.59
2023-01-30T21:46:51.638Z,98817.00
2023-01-30T21:49:40.601Z,98830.00
2023-01-30T21:52:29.526Z,98824.09
2023-01-30T21:55:18.730Z,98843.91
2023-01-30T21:58:07.675Z,98849.41
2023-01-30T22:00:55.332Z,98850.16
2023-01-30T22:03:45.638Z,98838.84
2023-01-30T22:06:34.204Z,98833.78
2023-01-30T22:09:21.642Z,98825.03
2023-01-30T22:12:09.668Z,98835.53
2023-01-30T22:14:59.192Z,98831.97
2023-01-30T22:17:47.854Z,98841.56
2023-01-30T22:20:37.388Z,98846.78
2023-01-30T22:23:25.012Z,98853.91
2023-01-30T22:26:16.209Z,98864.22
2023-01-30T22:29:06.007Z,98867.59
2023-01-30T22:31:54.242Z,98859.72
2023-01-30T22:34:41.580Z,98854.56
2023-01-30T22:37:30.675Z,98855.41
2023-01-30T22:40:18.617Z,98871.13
2023-01-30T22:43:06.096Z,98878.09
2023-01-30T22:46:00.568Z,98867.78
2023-01-30T22:48:49.393Z,98880.03
2023-01-30T22:51:39.689Z,98876.47
2023-01-30T22:54:29.212Z,98885.19
2023-01-30T22:57:17.359Z,98891.22
2023-01-30T23:00:07.082Z,98887.72
2023-01-30T23:02:56.702Z,98890.09
2023-01-30T23:05:44.683Z,98898.91
2023-01-30T23:08:33.808Z,98904.34
2023-01-30T23:11:26.609Z,98903.97
2023-01-30T23:14:16.578Z,98902.25
2023-01-30T23:17:25.362Z,98918.78
2023-01-30T23:20:13.313Z,98904.78
2023-01-30T23:23:03.126Z,98909.22
2023-01-30T23:25:51.141Z,98914.47
2023-01-30T23:28:41.249Z,98910.03
2023-01-30T23:31:30.478Z,98917.19
2023-01-30T23:34:20.303Z,98912.84
2023-01-30T23:37:08.910Z,98912.03
2023-01-30T23:39:57.581Z,98914.75
2023-01-30T23:42:45.878Z,98921.75
2023-01-30T23:45:38.117Z,98914.06
2023-01-30T23:48:26.979Z,98920.25
2023-01-30T23:51:17.135Z,98915.00
2023-01-30T23:54:05.602Z,98906.56
2023-01-30T23:56:55.430Z,98904.03
2023-01-30T23:59:43.511Z,98907.59
